Time;durP1;ratioP1;P1;durP2;ratioP2;P2;SDS_P1;SDS_P2;PMS_P1;PMS_P2;Temp;Humidity;BMP_temperature;BMP_pressure;BME280_temperature;BME280_humidity;BME280_pressure;Samples;Min_cycle;Max_cycle;Signal;HPM_P1;HPM_P2
2022/06/06 00:01:57;;;;;;;3.97;3.08;;;;;;;;;;5073366;28;20396;-83
2022/06/06 00:04:23;;;;;;;5.75;2.92;;;;;;;;;;5073512;28;20391;-83
2022/06/06 00:06:51;;;;;;;3.85;3.03;;;;;;;;;;5073364;28;20384;-82
2022/06/06 00:09:18;;;;;;;3.85;3.13;;;;;;;;;;5073654;28;20856;-82
2022/06/06 00:11:44;;;;;;;4.03;2.70;;;;;;;;;;5073198;28;20430;-81
2022/06/06 00:14:11;;;;;;;3.92;3.25;;;;;;;;;;5073476;28;20404;-81
2022/06/06 00:16:38;;;;;;;3.40;3.10;;;;;;;;;;5073298;28;20375;-81
2022/06/06 00:19:04;;;;;;;3.10;2.90;;;;;;;;;;5073378;28;20808;-81
2022/06/06 00:21:31;;;;;;;3.53;3.17;;;;;;;;;;5073039;28;20384;-82
2022/06/06 00:23:59;;;;;;;3.90;3.00;;;;;;;;;;5073080;28;20454;-81
2022/06/06 00:26:26;;;;;;;3.20;2.90;;;;;;;;;;5073066;28;20386;-81
2022/06/06 00:28:52;;;;;;;3.22;2.90;;;;;;;;;;5072938;28;20379;-81
2022/06/06 00:36:47;;;;;;;3.60;2.80;;;;;;;;;;5073182;28;20768;-81
2022/06/06 00:39:15;;;;;;;3.30;2.95;;;;;;;;;;5072725;28;20383;-82
2022/06/06 00:41:49;;;;;;;3.88;2.85;;;;;;;;;;5072698;28;20376;-81
2022/06/06 00:44:15;;;;;;;3.50;2.92;;;;;;;;;;5072593;28;20392;-82
2022/06/06 00:46:45;;;;;;;2.72;2.50;;;;;;;;;;5072632;28;20388;-82
2022/06/06 00:49:15;;;;;;;3.50;3.20;;;;;;;;;;5072694;28;20388;-82
2022/06/06 00:51:42;;;;;;;3.90;3.35;;;;;;;;;;5072734;28;20455;-81
2022/06/06 00:54:08;;;;;;;4.13;2.83;;;;;;;;;;5072492;28;20403;-82
2022/06/06 00:56:37;;;;;;;5.47;2.90;;;;;;;;;;5072457;28;20431;-81
2022/06/06 00:59:04;;;;;;;3.80;3.08;;;;;;;;;;5071633;28;20487;-82
2022/06/06 01:01:33;;;;;;;3.60;3.30;;;;;;;;;;5072285;28;20372;-82
2022/06/06 01:04:00;;;;;;;4.70;3.65;;;;;;;;;;5062614;28;20370;-82
2022/06/06 01:06:29;;;;;;;4.47;3.28;;;;;;;;;;5065391;28;20395;-81
2022/06/06 01:08:58;;;;;;;4.80;3.30;;;;;;;;;;5058457;28;20376;-81
2022/06/06 01:11:24;;;;;;;4.10;3.33;;;;;;;;;;5072431;28;20380;-81
2022/06/06 01:13:50;;;;;;;3.03;2.83;;;;;;;;;;5072166;28;20561;-82
2022/06/06 01:16:19;;;;;;;3.92;3.20;;;;;;;;;;5072271;28;20379;-82
2022/06/06 01:18:51;;;;;;;3.55;3.25;;;;;;;;;;5072197;28;20383;-82
2022/06/06 01:21:20;;;;;;;3.45;3.15;;;;;;;;;;5072153;28;20372;-81
2022/06/06 01:23:58;;;;;;;3.50;3.20;;;;;;;;;;5072103;28;20387;-81
2022/06/06 01:26:24;;;;;;;3.85;3.38;;;;;;;;;;5072141;28;20418;-81
2022/06/06 01:28:54;;;;;;;3.83;3.50;;;;;;;;;;5072181;28;20414;-81
2022/06/06 01:31:33;;;;;;;3.58;3.20;;;;;;;;;;5072024;28;20387;-81
2022/06/06 01:34:01;;;;;;;4.18;3.38;;;;;;;;;;5054814;28;20764;-81
2022/06/06 01:36:29;;;;;;;3.90;3.60;;;;;;;;;;5072036;28;20380;-81
2022/06/06 01:38:55;;;;;;;4.20;3.20;;;;;;;;;;5053984;28;20877;-81
2022/06/06 01:41:26;;;;;;;3.47;3.20;;;;;;;;;;5069040;28;20398;-81
2022/06/06 01:43:59;;;;;;;4.40;3.33;;;;;;;;;;5046977;28;20745;-82
2022/06/06 01:46:30;;;;;;;3.45;3.20;;;;;;;;;;5071211;28;20386;-82
2022/06/06 01:48:56;;;;;;;3.60;3.30;;;;;;;;;;5071351;28;20372;-82
2022/06/06 01:51:24;;;;;;;4.10;3.00;;;;;;;;;;5071798;28;20380;-81
2022/06/06 01:53:50;;;;;;;3.70;2.83;;;;;;;;;;5061078;28;20464;-81
2022/06/06 01:56:18;;;;;;;3.60;3.30;;;;;;;;;;5042830;28;20399;-82
2022/06/06 01:58:44;;;;;;;3.92;3.28;;;;;;;;;;5069558;28;20400;-81
2022/06/06 02:01:10;;;;;;;3.08;2.83;;;;;;;;;;5070216;28;20384;-81
2022/06/06 02:03:36;;;;;;;3.53;2.95;;;;;;;;;;5070295;28;20660;-82
2022/06/06 02:06:03;;;;;;;3.30;3.00;;;;;;;;;;5071796;28;20444;-82
2022/06/06 02:08:29;;;;;;;3.13;2.88;;;;;;;;;;5071701;28;20917;-81
2022/06/06 02:10:55;;;;;;;6.07;2.70;;;;;;;;;;5073498;28;20387;-81
2022/06/06 02:13:21;;;;;;;4.13;2.67;;;;;;;;;;5075445;28;20560;-81
2022/06/06 02:15:48;;;;;;;4.25;3.03;;;;;;;;;;5075581;28;20852;-81
2022/06/06 02:18:14;;;;;;;3.45;3.15;;;;;;;;;;5075536;28;20371;-81
2022/06/06 02:20:40;;;;;;;4.00;3.00;;;;;;;;;;5075378;28;20469;-82
2022/06/06 02:23:06;;;;;;;3.00;2.80;;;;;;;;;;5075347;28;20383;-82
2022/06/06 02:25:33;;;;;;;3.00;2.67;;;;;;;;;;5075300;28;20375;-82
2022/06/06 02:27:59;;;;;;;3.60;2.70;;;;;;;;;;5075310;28;20382;-81
2022/06/06 02:30:27;;;;;;;3.92;2.70;;;;;;;;;;5075222;28;20873;-81
2022/06/06 02:32:53;;;;;;;2.77;2.57;;;;;;;;;;5072620;28;20436;-81
2022/06/06 02:35:21;;;;;;;2.90;2.70;;;;;;;;;;5053562;28;20374;-84
2022/06/06 02:37:47;;;;;;;3.23;2.70;;;;;;;;;;5059934;28;20395;-84
2022/06/06 02:40:15;;;;;;;3.08;2.78;;;;;;;;;;5075094;28;20399;-83
2022/06/06 02:42:41;;;;;;;4.17;3.00;;;;;;;;;;5074958;28;20433;-84
2022/06/06 02:45:18;;;;;;;3.35;3.03;;;;;;;;;;5057071;28;20739;-84
2022/06/06 02:47:46;;;;;;;4.10;3.20;;;;;;;;;;5075075;28;20462;-84
2022/06/06 02:50:13;;;;;;;3.25;2.95;;;;;;;;;;5074770;28;20379;-84
2022/06/06 02:52:39;;;;;;;3.35;3.05;;;;;;;;;;5074842;28;20383;-84
2022/06/06 02:55:05;;;;;;;3.80;3.40;;;;;;;;;;5074850;28;20435;-83
2022/06/06 02:57:32;;;;;;;3.43;3.13;;;;;;;;;;5074800;28;20418;-84
2022/06/06 03:00:00;;;;;;;3.83;3.50;;;;;;;;;;5074761;28;20403;-84
2022/06/06 03:02:27;;;;;;;4.15;3.40;;;;;;;;;;5066770;28;20931;-84
2022/06/06 03:04:53;;;;;;;3.90;3.53;;;;;;;;;;5054765;28;20842;-84
2022/06/06 03:07:28;;;;;;;4.07;3.58;;;;;;;;;;5074974;28;20372;-84
2022/06/06 03:10:03;;;;;;;4.30;3.63;;;;;;;;;;5055652;28;20409;-83
2022/06/06 03:12:48;;;;;;;3.78;3.47;;;;;;;;;;5057158;28;20455;-84
2022/06/06 03:15:32;;;;;;;5.53;3.50;;;;;;;;;;5065235;28;20406;-84
2022/06/06 03:21:21;;;;;;;4.18;3.80;;;;;;;;;;5073870;28;20367;-84
2022/06/06 03:23:56;;;;;;;8.40;3.63;;;;;;;;;;5056544;28;20388;-84
2022/06/06 03:26:46;;;;;;;3.80;3.40;;;;;;;;;;5074321;28;20430;-84
2022/06/06 03:29:12;;;;;;;3.97;3.33;;;;;;;;;;5074236;28;20380;-83
2022/06/06 03:31:41;;;;;;;4.28;3.40;;;;;;;;;;5074052;28;20437;-83
2022/06/06 03:34:07;;;;;;;3.95;3.65;;;;;;;;;;5056615;28;20426;-84
2022/06/06 03:36:37;;;;;;;3.78;3.58;;;;;;;;;;5074070;28;20376;-83
2022/06/06 03:39:05;;;;;;;5.82;3.40;;;;;;;;;;5073927;28;20383;-84
2022/06/06 03:41:36;;;;;;;3.83;3.53;;;;;;;;;;5073919;28;20383;-83
2022/06/06 03:44:06;;;;;;;4.27;3.80;;;;;;;;;;5055832;28;20387;-84
2022/06/06 03:46:42;;;;;;;4.43;4.13;;;;;;;;;;5062549;28;20383;-84
2022/06/06 03:49:15;;;;;;;4.28;3.90;;;;;;;;;;5073777;28;20379;-83
2022/06/06 03:52:01;;;;;;;3.95;3.65;;;;;;;;;;5073628;28;20482;-81
2022/06/06 03:54:41;;;;;;;4.10;3.70;;;;;;;;;;5073052;28;20842;-81
2022/06/06 03:57:13;;;;;;;3.72;3.42;;;;;;;;;;5073635;28;20375;-81
2022/06/06 03:59:40;;;;;;;3.95;3.60;;;;;;;;;;5073411;28;20384;-81
2022/06/06 04:02:07;;;;;;;4.22;3.78;;;;;;;;;;5073412;28;20399;-81
2022/06/06 04:04:34;;;;;;;4.35;3.67;;;;;;;;;;5073466;28;20867;-82
2022/06/06 04:07:00;;;;;;;4.60;4.20;;;;;;;;;;5073330;28;20509;-81
2022/06/06 04:09:30;;;;;;;4.03;3.58;;;;;;;;;;5073514;28;20376;-81
2022/06/06 04:12:19;;;;;;;3.70;3.45;;;;;;;;;;5073209;28;20410;-81
2022/06/06 04:14:50;;;;;;;4.60;3.47;;;;;;;;;;5073479;28;20875;-82
2022/06/06 04:17:35;;;;;;;4.00;3.70;;;;;;;;;;5073134;28;20761;-82
2022/06/06 04:20:13;;;;;;;4.60;4.03;;;;;;;;;;5073110;28;20375;-81
2022/06/06 04:23:11;;;;;;;4.20;3.90;;;;;;;;;;5073201;28;20470;-81
2022/06/06 04:26:07;;;;;;;4.10;3.80;;;;;;;;;;5003823;28;20420;-82
2022/06/06 04:28:36;;;;;;;4.03;3.70;;;;;;;;;;4963591;28;20398;-82
2022/06/06 04:31:05;;;;;;;4.25;3.90;;;;;;;;;;5064018;28;20383;-81
2022/06/06 04:33:37;;;;;;;5.45;4.15;;;;;;;;;;5057873;28;20403;-81
2022/06/06 04:36:27;;;;;;;4.30;4.00;;;;;;;;;;5051751;28;20369;-81
2022/06/06 04:38:59;;;;;;;4.82;4.40;;;;;;;;;;5025750;28;20867;-82
2022/06/06 04:41:25;;;;;;;4.38;4.07;;;;;;;;;;5032501;28;20383;-82
2022/06/06 04:43:59;;;;;;;5.82;5.20;;;;;;;;;;5032509;28;20864;-83
2022/06/06 04:46:30;;;;;;;4.80;4.50;;;;;;;;;;5041358;28;20387;-82
2022/06/06 04:48:57;;;;;;;4.53;4.22;;;;;;;;;;5031747;28;20457;-83
2022/06/06 04:51:23;;;;;;;5.00;4.60;;;;;;;;;;5062259;28;20399;-84
2022/06/06 04:53:52;;;;;;;5.20;4.72;;;;;;;;;;5072522;28;20498;-84
2022/06/06 04:56:18;;;;;;;4.80;4.50;;;;;;;;;;5063715;28;20431;-84
2022/06/06 04:58:47;;;;;;;5.03;4.63;;;;;;;;;;5053283;28;20381;-84
2022/06/06 05:01:13;;;;;;;4.80;4.50;;;;;;;;;;5052522;28;20392;-83
2022/06/06 05:03:39;;;;;;;5.50;5.00;;;;;;;;;;5052717;28;20775;-84
2022/06/06 05:06:05;;;;;;;7.35;5.30;;;;;;;;;;5062453;28;20391;-84
2022/06/06 05:08:54;;;;;;;5.93;5.43;;;;;;;;;;5072321;28;20391;-82
2022/06/06 05:11:20;;;;;;;7.00;6.50;;;;;;;;;;5012239;28;20398;-82
2022/06/06 05:13:58;;;;;;;7.75;7.15;;;;;;;;;;5061017;28;20484;-82
2022/06/06 05:16:30;;;;;;;7.20;6.60;;;;;;;;;;5067457;28;20372;-82
2022/06/06 05:19:07;;;;;;;7.90;7.20;;;;;;;;;;5072152;28;20462;-82
2022/06/06 05:21:52;;;;;;;9.52;8.63;;;;;;;;;;5060579;28;20427;-83
2022/06/06 05:24:21;;;;;;;10.48;9.57;;;;;;;;;;5044184;28;20444;-83
2022/06/06 05:26:53;;;;;;;10.60;9.63;;;;;;;;;;5072184;28;20484;-84
2022/06/06 05:29:22;;;;;;;10.20;9.48;;;;;;;;;;5072083;28;20471;-83
2022/06/06 05:32:00;;;;;;;10.48;9.68;;;;;;;;;;5064083;28;20384;-83
2022/06/06 05:34:32;;;;;;;10.98;10.07;;;;;;;;;;5054629;28;20481;-83
2022/06/06 05:37:01;;;;;;;11.15;10.25;;;;;;;;;;5064431;28;20399;-83
2022/06/06 05:39:34;;;;;;;10.32;9.60;;;;;;;;;;5058803;28;20384;-83
2022/06/06 05:42:09;;;;;;;12.75;11.60;;;;;;;;;;5071925;28;20364;-83
2022/06/06 05:45:14;;;;;;;13.45;12.32;;;;;;;;;;5046692;28;20383;-84
2022/06/06 05:47:46;;;;;;;11.60;10.63;;;;;;;;;;4963202;28;20437;-83
2022/06/06 05:50:18;;;;;;;11.27;10.38;;;;;;;;;;4965558;28;20411;-84
2022/06/06 05:53:16;;;;;;;10.93;10.13;;;;;;;;;;4975508;28;20472;-83
2022/06/06 05:55:57;;;;;;;9.80;9.10;;;;;;;;;;4933648;28;20947;-83
2022/06/06 05:58:23;;;;;;;9.88;9.15;;;;;;;;;;4975135;28;20900;-83
2022/06/06 06:01:10;;;;;;;8.50;7.90;;;;;;;;;;4963818;28;20418;-82
2022/06/06 06:03:39;;;;;;;9.15;8.45;;;;;;;;;;4971382;28;20407;-83
2022/06/06 06:06:13;;;;;;;8.90;8.20;;;;;;;;;;4955407;28;20803;-83
2022/06/06 06:09:03;;;;;;;9.20;8.40;;;;;;;;;;4958112;28;20500;-83
2022/06/06 06:11:29;;;;;;;11.05;10.15;;;;;;;;;;4956533;28;21040;-83
2022/06/06 06:13:55;;;;;;;10.97;9.97;;;;;;;;;;4973277;28;20425;-83
2022/06/06 06:16:22;;;;;;;9.30;8.60;;;;;;;;;;4958111;28;20756;-82
2022/06/06 06:18:53;;;;;;;9.57;8.87;;;;;;;;;;5039369;28;20387;-83
2022/06/06 06:21:25;;;;;;;9.85;9.05;;;;;;;;;;5070552;28;20414;-82
2022/06/06 06:24:20;;;;;;;9.30;8.48;;;;;;;;;;5075219;28;20413;-83
2022/06/06 06:26:47;;;;;;;11.15;10.32;;;;;;;;;;5036264;28;20796;-82
2022/06/06 06:29:13;;;;;;;9.50;8.80;;;;;;;;;;5044948;28;20385;-83
2022/06/06 06:31:51;;;;;;;9.73;8.93;;;;;;;;;;5041301;28;20383;-82
2022/06/06 06:34:36;;;;;;;9.77;8.98;;;;;;;;;;5046664;28;20407;-82
2022/06/06 06:37:04;;;;;;;9.07;8.38;;;;;;;;;;5075041;28;20371;-83
2022/06/06 06:39:33;;;;;;;8.52;7.80;;;;;;;;;;5074980;28;20372;-83
2022/06/06 06:42:02;;;;;;;7.30;6.80;;;;;;;;;;5047573;28;20437;-82
2022/06/06 06:44:31;;;;;;;7.18;6.68;;;;;;;;;;5071206;28;20384;-83
2022/06/06 06:46:58;;;;;;;8.18;7.55;;;;;;;;;;5071128;28;20843;-83
2022/06/06 06:49:33;;;;;;;7.63;7.10;;;;;;;;;;5074854;28;20380;-83
2022/06/06 06:52:08;;;;;;;7.85;7.25;;;;;;;;;;5074785;28;20375;-83
2022/06/06 06:54:53;;;;;;;7.57;6.97;;;;;;;;;;5064020;28;20410;-83
2022/06/06 06:57:37;;;;;;;8.38;7.78;;;;;;;;;;5074794;28;20383;-83
2022/06/06 07:00:14;;;;;;;7.30;6.70;;;;;;;;;;5054649;28;20393;-83
2022/06/06 07:08:51;;;;;;;6.00;5.38;;;;;;;;;;5060643;28;21533;-83
2022/06/06 07:11:23;;;;;;;6.17;5.70;;;;;;;;;;5066919;28;20467;-83
2022/06/06 07:13:52;;;;;;;5.97;5.47;;;;;;;;;;5053718;28;20403;-83
2022/06/06 07:16:18;;;;;;;6.38;5.80;;;;;;;;;;5074368;28;20403;-83
2022/06/06 07:18:46;;;;;;;6.57;6.00;;;;;;;;;;5074570;28;20419;-83
2022/06/06 07:21:13;;;;;;;6.30;5.70;;;;;;;;;;5068995;28;20389;-83
2022/06/06 07:23:41;;;;;;;6.70;6.20;;;;;;;;;;5049870;28;20763;-84
2022/06/06 07:26:08;;;;;;;6.07;5.57;;;;;;;;;;5074204;28;20391;-84
2022/06/06 07:28:34;;;;;;;6.10;5.60;;;;;;;;;;5067825;28;20733;-83
2022/06/06 07:31:18;;;;;;;5.93;5.53;;;;;;;;;;5066915;28;20380;-84
2022/06/06 07:34:03;;;;;;;5.90;5.40;;;;;;;;;;5055937;28;20425;-84
2022/06/06 07:36:47;;;;;;;5.80;5.32;;;;;;;;;;5061236;28;20930;-84
2022/06/06 07:39:30;;;;;;;5.93;5.50;;;;;;;;;;5073875;28;20380;-84
2022/06/06 07:42:15;;;;;;;5.40;5.00;;;;;;;;;;5073595;28;20383;-84
2022/06/06 07:44:48;;;;;;;5.85;5.40;;;;;;;;;;5066217;28;20377;-84
2022/06/06 07:47:18;;;;;;;5.80;5.30;;;;;;;;;;5065803;28;20380;-84
2022/06/06 07:49:47;;;;;;;5.38;4.95;;;;;;;;;;5073763;28;20384;-84
2022/06/06 07:52:36;;;;;;;5.35;4.95;;;;;;;;;;5056416;28;20880;-84
2022/06/06 07:55:21;;;;;;;5.47;5.07;;;;;;;;;;5061055;28;20494;-83
2022/06/06 07:57:47;;;;;;;5.43;4.93;;;;;;;;;;5047085;28;20435;-84
2022/06/06 08:00:21;;;;;;;5.20;4.68;;;;;;;;;;5053758;28;20384;-83
2022/06/06 08:02:54;;;;;;;4.53;4.22;;;;;;;;;;5058087;28;20386;-84
2022/06/06 08:05:26;;;;;;;4.55;4.25;;;;;;;;;;5045051;28;20380;-83
2022/06/06 08:08:11;;;;;;;5.28;4.65;;;;;;;;;;5045534;28;20399;-83
2022/06/06 08:10:47;;;;;;;4.32;4.03;;;;;;;;;;5072259;28;20768;-84
2022/06/06 08:13:31;;;;;;;4.28;3.97;;;;;;;;;;5071470;28;20411;-86
2022/06/06 08:16:03;;;;;;;4.13;3.83;;;;;;;;;;5064537;28;20465;-87
2022/06/06 08:18:39;;;;;;;3.80;3.50;;;;;;;;;;5073099;28;20409;-88
2022/06/06 08:21:23;;;;;;;4.20;3.80;;;;;;;;;;5055183;28;20380;-87
2022/06/06 08:23:52;;;;;;;3.60;3.33;;;;;;;;;;5072995;28;20386;-88
2022/06/06 08:26:19;;;;;;;4.18;3.78;;;;;;;;;;5073245;28;20418;-88
2022/06/06 08:28:45;;;;;;;3.60;3.30;;;;;;;;;;5073251;28;20375;-88
2022/06/06 08:31:11;;;;;;;3.70;3.40;;;;;;;;;;5073052;28;20386;-87
2022/06/06 08:33:37;;;;;;;3.50;3.05;;;;;;;;;;5058231;28;20411;-88
2022/06/06 08:36:09;;;;;;;3.20;3.00;;;;;;;;;;5067791;28;20433;-89
2022/06/06 08:38:45;;;;;;;3.65;3.28;;;;;;;;;;5052818;28;20377;-88
2022/06/06 08:41:14;;;;;;;5.05;2.75;;;;;;;;;;5071765;28;20379;-88
2022/06/06 08:43:43;;;;;;;3.40;3.10;;;;;;;;;;5073079;28;20454;-89
2022/06/06 08:46:28;;;;;;;3.50;3.20;;;;;;;;;;5071372;28;20391;-91
2022/06/06 08:49:00;;;;;;;3.65;3.35;;;;;;;;;;5061835;28;20394;-88
2022/06/06 08:51:39;;;;;;;3.90;3.60;;;;;;;;;;5067606;28;20375;-90
2022/06/06 08:54:24;;;;;;;4.03;3.67;;;;;;;;;;5053867;28;20437;-89
2022/06/06 08:57:05;;;;;;;3.65;3.35;;;;;;;;;;5070611;28;20385;-89
2022/06/06 08:59:31;;;;;;;3.65;3.35;;;;;;;;;;5060312;28;20397;-88
2022/06/06 09:02:15;;;;;;;3.42;3.13;;;;;;;;;;5061684;28;20958;-88
2022/06/06 09:04:44;;;;;;;3.83;3.47;;;;;;;;;;5045731;28;20377;-91
2022/06/06 09:07:19;;;;;;;3.75;3.42;;;;;;;;;;5050148;28;20392;-92
2022/06/06 09:10:04;;;;;;;3.35;3.03;;;;;;;;;;5065331;28;20383;-91
2022/06/06 09:12:30;;;;;;;3.33;3.03;;;;;;;;;;5046970;28;20938;-93
2022/06/06 09:15:05;;;;;;;3.45;3.15;;;;;;;;;;5054153;28;20437;-92
2022/06/06 09:17:42;;;;;;;3.63;3.33;;;;;;;;;;5030881;28;20380;-94
2022/06/06 09:20:20;;;;;;;3.25;2.95;;;;;;;;;;5067102;28;20393;-92
2022/06/06 09:22:46;;;;;;;3.33;3.03;;;;;;;;;;5049291;28;20380;-94
2022/06/06 09:25:13;;;;;;;3.72;2.90;;;;;;;;;;5064393;28;20435;-93
2022/06/06 09:27:39;;;;;;;3.05;2.75;;;;;;;;;;5065656;28;20380;-93
2022/06/06 09:30:24;;;;;;;3.10;2.90;;;;;;;;;;5077815;28;20417;-92
2022/06/06 09:33:08;;;;;;;3.10;2.90;;;;;;;;;;5042050;28;20420;-92
2022/06/06 09:35:39;;;;;;;5.32;4.68;;;;;;;;;;5066956;28;20392;-92
2022/06/06 09:38:05;;;;;;;3.50;2.93;;;;;;;;;;5045635;28;20501;-94
2022/06/06 09:40:46;;;;;;;3.35;2.72;;;;;;;;;;5056063;28;20938;-93
2022/06/06 09:43:24;;;;;;;3.03;2.60;;;;;;;;;;5039093;28;20394;-91
2022/06/06 09:46:02;;;;;;;4.80;3.55;;;;;;;;;;5048126;28;20410;-90
2022/06/06 09:48:52;;;;;;;2.40;2.15;;;;;;;;;;5049646;28;20393;-92
2022/06/06 09:51:30;;;;;;;2.50;2.20;;;;;;;;;;5066044;28;20482;-93
2022/06/06 10:00:00;;;;;;;3.08;2.70;;;;;;;;;;5068355;28;20513;-90
2022/06/06 10:02:38;;;;;;;2.30;2.10;;;;;;;;;;5060564;28;20375;-90
2022/06/06 10:05:20;;;;;;;2.85;2.10;;;;;;;;;;5072628;28;20420;-90
2022/06/06 10:08:12;;;;;;;2.60;2.40;;;;;;;;;;5072032;28;20383;-92
2022/06/06 10:10:51;;;;;;;3.97;2.40;;;;;;;;;;5031320;28;20378;-93
2022/06/06 10:13:25;;;;;;;2.45;2.20;;;;;;;;;;5072662;28;20360;-93
2022/06/06 10:15:58;;;;;;;3.20;1.92;;;;;;;;;;5047300;28;20376;-95
2022/06/06 10:18:36;;;;;;;2.47;1.90;;;;;;;;;;5073543;28;20376;-93
2022/06/06 10:21:11;;;;;;;2.30;2.10;;;;;;;;;;5050544;28;20465;-92
2022/06/06 10:23:53;;;;;;;2.90;2.00;;;;;;;;;;5061589;28;20451;-94
2022/06/06 10:26:32;;;;;;;2.28;1.70;;;;;;;;;;5057287;28;20388;-94
2022/06/06 10:29:13;;;;;;;2.30;1.73;;;;;;;;;;5063224;28;20382;-94
2022/06/06 10:31:39;;;;;;;2.10;1.90;;;;;;;;;;5069230;28;20376;-94
2022/06/06 10:34:14;;;;;;;2.03;1.83;;;;;;;;;;5082809;28;20435;-94
2022/06/06 10:36:49;;;;;;;2.28;1.90;;;;;;;;;;5083227;28;20376;-94
2022/06/06 10:39:18;;;;;;;2.70;1.70;;;;;;;;;;5063374;28;20380;-91
2022/06/06 10:41:57;;;;;;;2.13;1.60;;;;;;;;;;5055514;28;20432;-92
2022/06/06 10:44:46;;;;;;;1.90;1.60;;;;;;;;;;5072558;28;20398;-92
2022/06/06 10:47:12;;;;;;;2.00;1.20;;;;;;;;;;5030516;28;20384;-93
2022/06/06 10:49:44;;;;;;;1.63;1.35;;;;;;;;;;5049607;28;20387;-92
2022/06/06 10:52:16;;;;;;;1.40;1.10;;;;;;;;;;5069503;28;20861;-94
2022/06/06 10:55:01;;;;;;;2.10;1.40;;;;;;;;;;5056799;28;20482;-91
2022/06/06 10:57:40;;;;;;;2.00;1.40;;;;;;;;;;5072885;28;20370;-92
2022/06/06 11:00:15;;;;;;;2.13;1.52;;;;;;;;;;5057993;28;20388;-92
2022/06/06 11:02:59;;;;;;;2.00;1.30;;;;;;;;;;5061430;28;20373;-90
2022/06/06 11:05:44;;;;;;;1.67;1.10;;;;;;;;;;5073269;28;20528;-90
2022/06/06 11:08:10;;;;;;;1.50;1.20;;;;;;;;;;5074800;28;20853;-92
2022/06/06 11:10:36;;;;;;;2.17;1.50;;;;;;;;;;5074657;28;20733;-92
2022/06/06 11:13:02;;;;;;;1.58;1.48;;;;;;;;;;5074693;28;20376;-91
2022/06/06 11:15:34;;;;;;;1.88;1.60;;;;;;;;;;5062927;28;20392;-91
2022/06/06 11:18:09;;;;;;;1.40;1.30;;;;;;;;;;5064756;28;20486;-92
2022/06/06 11:20:35;;;;;;;2.38;1.50;;;;;;;;;;5072126;28;20478;-93
2022/06/06 11:23:05;;;;;;;2.00;1.40;;;;;;;;;;5074562;28;20510;-90
2022/06/06 11:25:39;;;;;;;1.43;1.30;;;;;;;;;;5074479;28;20852;-92
2022/06/06 11:28:20;;;;;;;1.50;1.40;;;;;;;;;;5047722;28;20747;-92
2022/06/06 11:30:55;;;;;;;1.45;1.20;;;;;;;;;;5068479;28;20425;-92
2022/06/06 11:33:41;;;;;;;1.73;1.60;;;;;;;;;;5054666;28;20410;-92
2022/06/06 11:36:16;;;;;;;1.83;1.58;;;;;;;;;;5045068;28;20895;-92
2022/06/06 11:38:52;;;;;;;2.38;1.70;;;;;;;;;;5074202;28;20372;-93
2022/06/06 11:41:27;;;;;;;2.35;1.45;;;;;;;;;;5074026;28;20375;-92
2022/06/06 11:43:53;;;;;;;2.10;1.58;;;;;;;;;;5073211;28;20395;-92
2022/06/06 11:46:37;;;;;;;3.10;2.17;;;;;;;;;;5072647;28;20388;-92
2022/06/06 11:49:03;;;;;;;2.45;1.55;;;;;;;;;;5064051;28;20410;-93
2022/06/06 11:51:50;;;;;;;2.00;1.48;;;;;;;;;;5067636;28;20382;-91
2022/06/06 11:54:16;;;;;;;3.00;1.67;;;;;;;;;;5063132;28;20467;-91
2022/06/06 11:56:54;;;;;;;1.73;1.50;;;;;;;;;;5070617;28;20865;-93
2022/06/06 11:59:32;;;;;;;1.80;1.50;;;;;;;;;;5074315;28;20408;-90
2022/06/06 12:01:58;;;;;;;2.83;1.45;;;;;;;;;;5073465;28;20921;-91
2022/06/06 12:04:54;;;;;;;3.05;1.60;;;;;;;;;;5073665;28;20454;-92
2022/06/06 12:07:29;;;;;;;1.65;1.38;;;;;;;;;;4985349;28;20392;-92
2022/06/06 12:10:00;;;;;;;1.58;1.40;;;;;;;;;;5073581;28;20375;-94
2022/06/06 12:12:44;;;;;;;2.05;1.38;;;;;;;;;;5073992;28;20841;-92
2022/06/06 12:15:16;;;;;;;2.20;1.48;;;;;;;;;;5073344;28;20763;-93
2022/06/06 12:17:48;;;;;;;2.22;1.70;;;;;;;;;;5065975;28;20381;-92
2022/06/06 12:20:31;;;;;;;2.25;1.35;;;;;;;;;;5053927;28;20380;-93
2022/06/06 12:23:04;;;;;;;1.80;1.50;;;;;;;;;;5064551;28;20866;-92
2022/06/06 12:25:42;;;;;;;2.00;1.40;;;;;;;;;;5069096;28;20459;-93
2022/06/06 12:28:19;;;;;;;2.00;1.27;;;;;;;;;;5073492;28;20396;-94
2022/06/06 12:30:51;;;;;;;1.95;1.65;;;;;;;;;;5057418;28;20850;-92
2022/06/06 12:33:28;;;;;;;1.65;1.50;;;;;;;;;;5053985;28;20383;-91
2022/06/06 12:35:57;;;;;;;2.22;1.42;;;;;;;;;;5068346;28;20380;-94
2022/06/06 12:38:26;;;;;;;2.55;1.75;;;;;;;;;;5073258;28;20487;-92
2022/06/06 12:40:52;;;;;;;2.45;1.30;;;;;;;;;;5072782;28;20384;-92
2022/06/06 12:43:45;;;;;;;2.00;1.30;;;;;;;;;;5072818;28;20380;-92
2022/06/06 12:46:29;;;;;;;2.30;1.50;;;;;;;;;;5017633;28;20679;-91
2022/06/06 12:49:09;;;;;;;2.30;1.50;;;;;;;;;;5072812;28;20756;-92
2022/06/06 12:51:54;;;;;;;1.42;1.30;;;;;;;;;;5072606;28;20394;-91
2022/06/06 12:54:30;;;;;;;1.60;1.30;;;;;;;;;;5072516;28;20395;-92
2022/06/06 12:56:57;;;;;;;1.75;1.50;;;;;;;;;;5072396;28;20372;-88
2022/06/06 12:59:26;;;;;;;2.45;1.40;;;;;;;;;;5073023;28;20395;-92
2022/06/06 13:01:59;;;;;;;3.65;1.70;;;;;;;;;;5054643;28;20381;-94
2022/06/06 13:04:37;;;;;;;2.30;1.50;;;;;;;;;;5052076;28;20385;-92
2022/06/06 13:07:33;;;;;;;3.05;1.52;;;;;;;;;;5064044;28;20388;-92
2022/06/06 13:10:10;;;;;;;1.80;1.30;;;;;;;;;;5046461;28;20816;-90
2022/06/06 13:12:45;;;;;;;2.25;1.75;;;;;;;;;;5074764;28;20767;-95
2022/06/06 13:15:11;;;;;;;2.40;2.20;;;;;;;;;;5058679;28;20492;-94
2022/06/06 13:17:49;;;;;;;2.17;1.50;;;;;;;;;;5066460;28;20418;-94
2022/06/06 13:20:33;;;;;;;3.53;1.67;;;;;;;;;;5062444;28;20373;-93
2022/06/06 13:23:08;;;;;;;2.22;1.30;;;;;;;;;;5053338;23;20433;-93
2022/06/06 13:25:53;;;;;;;1.63;1.30;;;;;;;;;;5054709;28;20754;-93
2022/06/06 13:28:29;;;;;;;1.52;1.40;;;;;;;;;;5061857;28;20366;-93
2022/06/06 13:45:07;;;;;;;2.45;1.40;;;;;;;;;;5024331;28;20444;-93
2022/06/06 13:51:04;;;;;;;2.70;1.50;;;;;;;;;;5042812;28;20361;-91
2022/06/06 14:00:25;;;;;;;2.03;1.53;;;;;;;;;;4927881;29;20462;-92
2022/06/06 14:06:20;;;;;;;1.60;1.50;;;;;;;;;;4886204;29;20397;-92
2022/06/06 14:11:54;;;;;;;1.73;1.60;;;;;;;;;;4894833;29;20994;-91
2022/06/06 14:18:00;;;;;;;1.58;1.40;;;;;;;;;;4879179;29;20401;-92
2022/06/06 14:20:22;;;;;;;4.28;1.80;;;;;;;;;;4863673;29;20382;-91
2022/06/06 14:22:51;;;;;;;2.13;1.77;;;;;;;;;;4873241;29;20442;-94
2022/06/06 14:25:18;;;;;;;1.53;1.37;;;;;;;;;;4862084;29;20432;-88
2022/06/06 14:27:45;;;;;;;1.70;1.40;;;;;;;;;;4860770;29;20462;-89
2022/06/06 14:30:29;;;;;;;1.70;1.48;;;;;;;;;;4853600;29;20412;-86
2022/06/06 14:32:57;;;;;;;1.92;1.60;;;;;;;;;;4875530;29;20794;-86
2022/06/06 14:35:23;;;;;;;2.40;1.70;;;;;;;;;;4930422;28;20636;-88
2022/06/06 14:37:49;;;;;;;2.37;1.50;;;;;;;;;;4979573;28;20386;-86
2022/06/06 14:40:34;;;;;;;1.70;1.40;;;;;;;;;;4982843;28;20404;-87
2022/06/06 14:43:00;;;;;;;3.40;1.60;;;;;;;;;;5055014;28;20405;-86
2022/06/06 14:45:34;;;;;;;3.70;2.00;;;;;;;;;;5054866;28;20918;-87
2022/06/06 14:48:19;;;;;;;2.00;1.90;;;;;;;;;;5069043;28;20376;-88
2022/06/06 14:50:56;;;;;;;2.03;1.67;;;;;;;;;;5055968;28;20373;-91
2022/06/06 14:53:22;;;;;;;2.35;1.70;;;;;;;;;;5054566;28;20380;-86
2022/06/06 14:55:50;;;;;;;1.83;1.50;;;;;;;;;;5051033;28;20390;-87
2022/06/06 14:58:21;;;;;;;2.92;1.40;;;;;;;;;;5053065;28;20416;-88
2022/06/06 15:00:52;;;;;;;2.47;1.88;;;;;;;;;;5039654;28;20379;-88
2022/06/06 15:03:18;;;;;;;4.07;1.70;;;;;;;;;;5042773;28;20385;-89
2022/06/06 15:05:44;;;;;;;3.47;1.42;;;;;;;;;;5062637;28;20379;-89
2022/06/06 15:08:13;;;;;;;2.13;1.50;;;;;;;;;;5057716;28;20378;-89
2022/06/06 15:10:45;;;;;;;2.20;1.55;;;;;;;;;;5041757;28;20390;-87
2022/06/06 15:13:13;;;;;;;2.20;1.60;;;;;;;;;;5048318;28;20383;-91
2022/06/06 15:15:40;;;;;;;2.10;1.90;;;;;;;;;;5053400;28;20906;-89
2022/06/06 15:18:06;;;;;;;1.85;1.40;;;;;;;;;;5053196;28;20385;-89
2022/06/06 15:20:33;;;;;;;1.92;1.52;;;;;;;;;;5044529;28;20387;-90
2022/06/06 15:23:10;;;;;;;3.72;1.77;;;;;;;;;;5042244;28;20884;-89
2022/06/06 15:25:38;;;;;;;1.90;1.33;;;;;;;;;;5037114;28;20387;-90
2022/06/06 15:28:04;;;;;;;1.70;1.60;;;;;;;;;;5051502;28;20386;-89
2022/06/06 15:30:43;;;;;;;1.73;1.63;;;;;;;;;;5051815;28;20795;-88
2022/06/06 15:33:14;;;;;;;2.28;1.60;;;;;;;;;;5052721;28;20891;-89
2022/06/06 15:35:41;;;;;;;1.50;1.40;;;;;;;;;;5053228;28;20457;-89
2022/06/06 15:38:10;;;;;;;2.08;1.85;;;;;;;;;;5050998;28;20385;-89
2022/06/06 15:40:38;;;;;;;2.92;1.70;;;;;;;;;;5054018;28;20421;-89
2022/06/06 15:43:16;;;;;;;2.45;1.60;;;;;;;;;;5040806;28;20886;-90
2022/06/06 15:45:42;;;;;;;2.25;1.45;;;;;;;;;;5054320;28;20804;-87
2022/06/06 15:48:11;;;;;;;2.00;1.40;;;;;;;;;;5053931;28;20405;-86
2022/06/06 15:50:55;;;;;;;1.58;1.48;;;;;;;;;;5054016;28;20385;-86
2022/06/06 15:53:44;;;;;;;1.83;1.30;;;;;;;;;;5054008;28;20378;-86
2022/06/06 15:56:10;;;;;;;2.92;1.58;;;;;;;;;;5050832;28;20381;-87
2022/06/06 15:58:46;;;;;;;4.10;1.65;;;;;;;;;;5053678;28;20772;-87
2022/06/06 16:01:21;;;;;;;2.50;1.70;;;;;;;;;;5059858;28;20385;-85
2022/06/06 16:04:15;;;;;;;1.98;1.45;;;;;;;;;;5053677;28;20448;-86
2022/06/06 16:06:45;;;;;;;1.70;1.52;;;;;;;;;;5052679;28;21020;-86
2022/06/06 16:09:11;;;;;;;2.88;1.52;;;;;;;;;;5054036;28;20388;-87
2022/06/06 16:11:46;;;;;;;2.28;1.70;;;;;;;;;;5053767;28;20464;-86
2022/06/06 16:14:33;;;;;;;1.70;1.60;;;;;;;;;;5053675;28;20413;-87